createdAt,value
2017-07-24T00:15:40.981Z,8.80
2017-07-24T00:36:46.756Z,10.33
2017-07-24T00:57:52.531Z,9.70
2017-07-24T01:18:58.716Z,10.53
2017-07-24T01:40:04.492Z,9.97
2017-07-24T02:01:10.884Z,9.70
2017-07-24T02:22:17.374Z,11.00
2017-07-24T02:43:23.765Z,8.13
2017-07-24T03:04:29.847Z,10.43
2017-07-24T03:25:35.930Z,11.40
2017-07-24T03:46:41.402Z,7.87
2017-07-24T04:07:47.379Z,8.67
2017-07-24T04:28:53.362Z,3.83
2017-07-24T04:49:59.339Z,5.23
2017-07-24T05:11:05.263Z,5.20
2017-07-24T05:32:11.403Z,4.57
2017-07-24T05:53:17.284Z,6.07
2017-07-24T06:14:23.568Z,5.67
2017-07-24T06:35:29.959Z,6.10
2017-07-24T06:56:35.835Z,4.77
2017-07-24T07:17:42.273Z,3.97
2017-07-24T07:38:48.001Z,4.93
2017-07-24T08:03:14.584Z,5.20
2017-07-24T08:24:20.154Z,5.00
2017-07-24T08:45:25.622Z,6.90
2017-07-24T09:06:31.398Z,6.67
2017-07-24T09:27:37.582Z,6.07
2017-07-24T09:48:43.772Z,2.53
2017-07-24T10:09:49.695Z,2.20
2017-07-24T10:30:55.629Z,2.27
2017-07-24T10:52:01.711Z,2.17
2017-07-24T11:13:07.687Z,2.20
2017-07-24T11:34:13.980Z,2.47
2017-07-24T11:55:19.750Z,3.10
2017-07-24T12:16:26.145Z,1.20
2017-07-24T12:37:31.915Z,1.57
2017-07-24T12:58:37.895Z,1.37
2017-07-24T13:19:43.675Z,1.83
2017-07-24T13:40:49.957Z,1.80
2017-07-24T14:01:57.167Z,1.60
2017-07-24T14:23:04.073Z,1.63
2017-07-24T14:44:10.569Z,2.03
2017-07-24T15:05:18.087Z,1.80
2017-07-24T15:26:25.696Z,2.67
2017-07-24T15:47:32.604Z,2.33
2017-07-24T16:08:38.173Z,1.80
2017-07-24T16:29:44.866Z,2.00
2017-07-24T16:50:50.846Z,2.63
2017-07-24T17:11:57.343Z,2.47
2017-07-24T17:33:03.524Z,2.50
2017-07-24T17:54:23.422Z,2.33
2017-07-24T18:15:29.821Z,1.30
2017-07-24T18:36:35.906Z,0.50
2017-07-24T18:57:41.481Z,0.43
2017-07-24T19:18:46.949Z,0.57
2017-07-24T19:39:52.820Z,0.40
2017-07-24T20:07:11.948Z,0.20
2017-07-24T20:28:18.369Z,0.50
2017-07-24T20:49:24.626Z,0.40
2017-07-24T21:10:31.118Z,0.50
2017-07-24T21:31:36.996Z,0.30
2017-07-24T21:52:43.385Z,0.70
2017-07-24T22:13:49.161Z,0.47
2017-07-24T22:34:55.659Z,0.53
2017-07-24T22:56:02.663Z,0.57
2017-07-24T23:17:08.330Z,0.70
2017-07-24T23:38:14.002Z,0.70
2017-07-24T23:59:20.058Z,0.60
